createdAt,value
2019-04-16T00:01:44.511Z,14.68
2019-04-16T00:04:10.140Z,14.35
2019-04-16T00:06:39.138Z,14.65
2019-04-16T00:09:07.356Z,14.90
2019-04-16T00:11:38.516Z,14.83
2019-04-16T00:14:06.764Z,14.40
2019-04-16T00:16:34.984Z,14.35
2019-04-16T00:19:05.596Z,14.48
2019-04-16T00:21:38.468Z,14.50
2019-04-16T00:24:06.408Z,14.35
2019-04-16T00:26:34.584Z,14.32
2019-04-16T00:29:03.189Z,14.23
2019-04-16T00:31:31.071Z,14.48
2019-04-16T00:33:59.311Z,13.65
2019-04-16T00:36:27.531Z,13.70
2019-04-16T00:38:55.745Z,14.07
2019-04-16T00:41:23.998Z,14.10
2019-04-16T00:43:52.239Z,14.93
2019-04-16T00:46:20.479Z,15.35
2019-04-16T00:48:48.659Z,14.80
2019-04-16T00:51:16.879Z,16.02
2019-04-16T00:53:45.118Z,15.95
2019-04-16T00:56:13.473Z,14.98
2019-04-16T00:58:41.608Z,13.63
2019-04-16T01:01:09.832Z,15.23
2019-04-16T01:03:38.087Z,15.17
2019-04-16T01:06:07.758Z,15.00
2019-04-16T01:08:34.631Z,13.73
2019-04-16T01:11:02.817Z,14.68
2019-04-16T01:13:31.068Z,14.90
2019-04-16T01:16:02.465Z,14.83
2019-04-16T01:18:27.523Z,13.43
2019-04-16T01:20:55.768Z,14.23
2019-04-16T01:23:24.014Z,14.03
2019-04-16T01:25:55.370Z,14.80
2019-04-16T01:28:20.822Z,14.07
2019-04-16T01:30:52.953Z,13.73
2019-04-16T01:33:24.042Z,15.35
2019-04-16T01:35:54.119Z,14.50
2019-04-16T01:38:28.053Z,15.07
2019-04-16T01:41:00.317Z,14.60
2019-04-16T01:43:28.570Z,14.00
2019-04-16T01:46:00.844Z,15.32
2019-04-16T01:48:25.008Z,15.43
2019-04-16T01:50:53.280Z,14.80
2019-04-16T01:53:21.731Z,14.40
2019-04-16T01:55:49.814Z,13.93
2019-04-16T01:58:18.063Z,14.70
2019-04-16T02:00:46.282Z,15.00
2019-04-16T02:03:17.502Z,14.05
2019-04-16T02:05:42.761Z,15.35
2019-04-16T02:08:11.069Z,15.00
2019-04-16T02:10:39.184Z,15.73
2019-04-16T02:13:07.425Z,16.40
2019-04-16T02:15:35.632Z,15.93
2019-04-16T02:18:04.000Z,15.00
2019-04-16T02:20:32.136Z,15.00
2019-04-16T02:23:00.319Z,15.20
2019-04-16T02:25:28.544Z,15.27
2019-04-16T02:27:57.650Z,15.60
2019-04-16T02:30:25.049Z,15.30
2019-04-16T02:32:53.300Z,15.45
2019-04-16T02:35:21.630Z,14.50
2019-04-16T02:37:49.844Z,15.27
2019-04-16T02:40:18.927Z,16.27
2019-04-16T02:42:46.341Z,15.00
2019-04-16T02:45:14.545Z,16.12
2019-04-16T02:47:42.856Z,15.43
2019-04-16T02:50:11.097Z,15.43
2019-04-16T02:52:39.322Z,14.75
2019-04-16T02:55:11.828Z,16.42
2019-04-16T02:57:43.625Z,15.20
2019-04-16T03:00:17.565Z,15.60
2019-04-16T03:02:46.748Z,14.73
2019-04-16T03:05:16.767Z,15.52
2019-04-16T03:07:44.987Z,15.83
2019-04-16T03:10:13.997Z,15.63
2019-04-16T03:12:41.428Z,16.17
2019-04-16T03:15:09.599Z,14.68
2019-04-16T03:17:39.508Z,14.80
2019-04-16T03:20:06.914Z,15.53
2019-04-16T03:22:35.116Z,16.30
2019-04-16T03:25:03.323Z,15.50
2019-04-16T03:27:31.576Z,14.53
2019-04-16T03:30:03.442Z,15.40
2019-04-16T03:32:33.186Z,14.90
2019-04-16T03:34:56.286Z,16.00
2019-04-16T03:37:24.481Z,15.65
2019-04-16T03:39:52.720Z,15.38
2019-04-16T03:42:20.952Z,15.32
2019-04-16T03:44:49.189Z,15.80
2019-04-16T03:47:19.115Z,15.60
2019-04-16T03:49:45.654Z,15.82
2019-04-16T03:52:13.848Z,15.40
2019-04-16T03:54:42.030Z,16.10
2019-04-16T03:57:10.341Z,15.90
2019-04-16T03:59:40.003Z,16.02
2019-04-16T04:02:06.737Z,15.68
2019-04-16T04:04:35.010Z,15.05
2019-04-16T04:07:03.241Z,14.80
2019-04-16T04:09:31.473Z,14.77
2019-04-16T04:11:59.730Z,15.00
2019-04-16T04:14:27.944Z,15.20
2019-04-16T04:16:56.172Z,15.68
2019-04-16T04:19:24.410Z,14.68
2019-04-16T04:21:53.709Z,15.70
2019-04-16T04:24:20.905Z,15.80
2019-04-16T04:26:49.153Z,16.02
2019-04-16T04:29:17.328Z,15.82
2019-04-16T04:31:45.578Z,15.07
2019-04-16T04:34:15.738Z,15.65
2019-04-16T04:36:42.029Z,16.77
2019-04-16T04:39:14.717Z,15.52
2019-04-16T04:41:38.536Z,16.70
2019-04-16T04:44:06.783Z,15.85
2019-04-16T04:46:34.963Z,16.80
2019-04-16T04:49:03.181Z,16.40
2019-04-16T04:51:31.393Z,16.02
2019-04-16T04:53:59.629Z,16.73
2019-04-16T04:56:28.563Z,16.62
2019-04-16T04:58:56.092Z,16.98
2019-04-16T05:01:24.319Z,16.42
2019-04-16T05:03:54.476Z,16.25
2019-04-16T05:06:26.835Z,16.80
2019-04-16T05:08:50.978Z,16.12
2019-04-16T05:11:19.200Z,16.10
2019-04-16T05:13:47.407Z,16.92
2019-04-16T05:16:15.667Z,16.77
2019-04-16T05:18:43.912Z,15.48
2019-04-16T05:21:12.109Z,16.02
2019-04-16T05:23:40.309Z,16.48
2019-04-16T05:26:09.920Z,16.25
2019-04-16T05:28:36.848Z,17.12
2019-04-16T05:31:05.175Z,16.50
2019-04-16T05:33:34.474Z,16.70
2019-04-16T05:36:01.574Z,16.37
2019-04-16T05:38:29.797Z,16.70
2019-04-16T05:40:58.044Z,16.48
2019-04-16T05:43:30.031Z,15.35
2019-04-16T05:45:54.480Z,16.80
2019-04-16T05:48:22.825Z,16.02
2019-04-16T05:50:50.931Z,16.12
2019-04-16T05:53:19.173Z,16.12
2019-04-16T05:55:50.045Z,15.63
2019-04-16T05:58:15.658Z,15.52
2019-04-16T06:00:45.687Z,16.85
2019-04-16T06:03:13.899Z,16.67
2019-04-16T06:05:42.217Z,14.90
2019-04-16T06:08:11.391Z,15.63
2019-04-16T06:10:39.636Z,15.18
2019-04-16T06:13:09.386Z,13.95
2019-04-16T06:15:42.486Z,15.00
2019-04-16T06:18:10.736Z,15.40
2019-04-16T06:20:39.846Z,15.18
2019-04-16T06:23:10.904Z,16.15
2019-04-16T06:25:44.652Z,16.25
2019-04-16T06:28:15.769Z,15.50
2019-04-16T06:30:45.935Z,15.57
2019-04-16T06:33:14.148Z,14.70
2019-04-16T06:35:46.218Z,16.15
2019-04-16T06:38:14.447Z,14.98
2019-04-16T06:40:44.631Z,15.20
2019-04-16T06:43:12.856Z,14.50
2019-04-16T06:45:45.828Z,16.45
2019-04-16T06:48:14.995Z,15.18
2019-04-16T06:50:43.205Z,16.00
2019-04-16T06:53:15.246Z,16.27
2019-04-16T06:55:45.228Z,15.43
2019-04-16T06:58:18.277Z,15.52
2019-04-16T07:00:45.488Z,15.63
2019-04-16T07:03:13.710Z,15.40
2019-04-16T07:05:44.822Z,14.95
2019-04-16T07:08:17.781Z,15.25
2019-04-16T07:10:46.810Z,15.27
2019-04-16T07:13:15.042Z,15.30
2019-04-16T07:15:43.266Z,14.85
2019-04-16T07:18:11.481Z,15.23
2019-04-16T07:20:42.316Z,15.48
2019-04-16T07:23:08.026Z,15.00
2019-04-16T07:25:41.734Z,14.57
2019-04-16T07:28:04.515Z,15.02
2019-04-16T07:30:35.511Z,14.90
2019-04-16T07:33:02.101Z,15.43
2019-04-16T07:35:30.146Z,14.85
2019-04-16T07:38:04.966Z,15.15
2019-04-16T07:40:32.222Z,15.27
2019-04-16T07:43:03.500Z,15.68
2019-04-16T07:45:32.559Z,15.18
2019-04-16T07:48:05.901Z,15.15
2019-04-16T07:50:36.622Z,15.20
2019-04-16T07:53:05.683Z,15.25
2019-04-16T07:55:34.701Z,15.03
2019-04-16T07:58:02.967Z,15.50
2019-04-16T08:00:31.159Z,15.43
2019-04-16T08:02:59.377Z,15.00
2019-04-16T08:05:28.123Z,15.23
2019-04-16T08:07:55.895Z,14.77
2019-04-16T08:10:24.123Z,14.80
2019-04-16T08:12:52.407Z,15.93
2019-04-16T08:15:20.597Z,16.30
2019-04-16T08:17:49.916Z,15.93
2019-04-16T08:20:21.028Z,14.52
2019-04-16T08:22:47.536Z,14.25
2019-04-16T08:25:14.764Z,15.20
2019-04-16T08:27:43.310Z,14.70
2019-04-16T08:30:11.564Z,14.87
2019-04-16T08:32:39.756Z,15.18
2019-04-16T08:35:08.020Z,15.15
2019-04-16T08:37:48.415Z,14.30
2019-04-16T08:40:05.426Z,13.65
2019-04-16T08:42:43.832Z,14.77
2019-04-16T08:45:07.212Z,15.40
2019-04-16T08:47:30.180Z,15.02
2019-04-16T08:49:58.569Z,15.50
2019-04-16T08:52:26.649Z,14.73
2019-04-16T08:54:55.038Z,15.30
2019-04-16T08:57:23.114Z,14.82
2019-04-16T08:59:51.371Z,15.80
2019-04-16T09:02:19.587Z,16.30
2019-04-16T09:04:48.245Z,16.08
2019-04-16T09:07:21.896Z,16.48
2019-04-16T09:09:50.157Z,16.73
2019-04-16T09:12:18.462Z,17.10
2019-04-16T09:14:46.672Z,16.77
2019-04-16T09:17:15.686Z,16.70
2019-04-16T09:19:43.925Z,17.15
2019-04-16T09:22:15.501Z,17.10
2019-04-16T09:24:41.670Z,17.92
2019-04-16T09:27:12.454Z,17.42
2019-04-16T09:29:43.486Z,16.55
2019-04-16T09:32:17.250Z,17.42
2019-04-16T09:34:47.271Z,18.05
2019-04-16T09:37:17.397Z,17.10
2019-04-16T09:39:48.553Z,17.77
2019-04-16T09:42:16.747Z,17.73
2019-04-16T09:44:45.040Z,18.48
2019-04-16T09:47:13.573Z,18.60
2019-04-16T09:49:41.476Z,18.30
2019-04-16T09:52:09.746Z,18.27
2019-04-16T09:54:37.953Z,18.85
2019-04-16T09:57:06.163Z,17.27
2019-04-16T09:59:35.158Z,17.17
2019-04-16T10:02:03.440Z,17.35
2019-04-16T10:04:31.634Z,18.08
2019-04-16T10:06:59.874Z,16.90
2019-04-16T10:09:28.143Z,16.80
2019-04-16T10:11:57.306Z,18.05
2019-04-16T10:14:24.569Z,17.02
2019-04-16T10:16:52.852Z,17.70
2019-04-16T10:19:21.692Z,17.37
2019-04-16T10:21:52.948Z,17.87
2019-04-16T10:24:19.349Z,17.17
2019-04-16T10:26:47.577Z,18.15
2019-04-16T10:29:15.796Z,17.30
2019-04-16T10:31:44.065Z,17.35
2019-04-16T10:34:12.276Z,15.95
2019-04-16T10:36:40.512Z,18.25
2019-04-16T10:39:09.671Z,18.40
2019-04-16T10:41:41.800Z,18.05
2019-04-16T10:44:13.975Z,17.37
2019-04-16T10:46:42.202Z,17.77
2019-04-16T10:49:10.426Z,16.73
2019-04-16T10:51:42.509Z,17.02
2019-04-16T10:54:15.660Z,16.87
2019-04-16T10:56:46.842Z,18.37
2019-04-16T10:59:18.867Z,17.37
2019-04-16T11:01:52.656Z,18.12
2019-04-16T11:04:24.600Z,18.90
2019-04-16T11:06:52.908Z,17.60
2019-04-16T11:09:21.150Z,18.02
2019-04-16T11:11:53.277Z,18.15
2019-04-16T11:14:21.523Z,18.73
2019-04-16T11:16:49.752Z,18.67
2019-04-16T11:19:19.661Z,18.48
2019-04-16T11:21:47.887Z,17.73
2019-04-16T11:24:16.366Z,19.02
2019-04-16T11:26:44.580Z,19.62
2019-04-16T11:29:12.547Z,20.25
2019-04-16T11:31:40.811Z,19.52
2019-04-16T11:34:09.026Z,19.40
2019-04-16T11:36:37.276Z,22.05
2019-04-16T11:39:05.491Z,21.25
2019-04-16T11:41:33.766Z,20.30
2019-04-16T11:44:14.228Z,19.50
2019-04-16T11:46:30.239Z,21.58
2019-04-16T11:48:58.545Z,20.37
2019-04-16T11:51:26.743Z,20.67
2019-04-16T11:53:54.997Z,20.00
2019-04-16T11:56:23.231Z,18.98
2019-04-16T11:58:51.490Z,17.45
2019-04-16T12:01:22.904Z,17.33
2019-04-16T12:03:47.966Z,17.80
2019-04-16T12:06:27.765Z,17.55
2019-04-16T12:08:50.620Z,18.00
2019-04-16T12:11:19.586Z,18.17
2019-04-16T12:13:47.847Z,17.85
2019-04-16T12:16:16.181Z,17.10
2019-04-16T12:18:46.222Z,15.60
2019-04-16T12:21:14.429Z,16.33
2019-04-16T12:23:43.435Z,14.73
2019-04-16T12:26:11.697Z,14.27
2019-04-16T12:28:43.762Z,15.73
2019-04-16T12:31:16.628Z,14.18
2019-04-16T12:33:44.871Z,15.43
2019-04-16T12:36:15.186Z,17.12
2019-04-16T12:38:47.083Z,17.23
2019-04-16T12:41:16.117Z,16.20
2019-04-16T12:43:44.367Z,17.17
2019-04-16T12:46:16.363Z,14.07
2019-04-16T12:48:44.616Z,12.45
2019-04-16T12:51:12.824Z,12.70
2019-04-16T12:53:45.994Z,14.73
2019-04-16T12:56:16.946Z,15.30
2019-04-16T12:58:50.369Z,16.30
2019-04-16T13:01:15.135Z,15.10
2019-04-16T13:03:46.616Z,14.52
2019-04-16T13:06:14.424Z,13.57
2019-04-16T13:08:42.673Z,11.30
2019-04-16T13:11:14.859Z,10.90
2019-04-16T13:13:48.498Z,11.40
2019-04-16T13:16:18.523Z,11.37
2019-04-16T18:43:44.418Z,6.43
2019-04-16T18:46:15.188Z,6.20
2019-04-16T18:48:44.612Z,5.75
2019-04-16T18:51:09.104Z,5.97
2019-04-16T18:53:43.268Z,5.25
2019-04-16T18:56:09.363Z,5.18
2019-04-16T18:58:37.561Z,5.10
2019-04-16T19:01:06.580Z,4.85
2019-04-16T19:03:35.070Z,4.40
2019-04-16T19:06:03.378Z,3.55
2019-04-16T19:08:41.434Z,3.60
2019-04-16T19:11:00.027Z,3.10
2019-04-16T19:13:28.290Z,3.20
2019-04-16T19:15:56.956Z,2.90
2019-04-16T19:18:25.198Z,2.80
2019-04-16T19:20:53.571Z,3.40
2019-04-16T19:23:22.260Z,3.20
2019-04-16T19:25:51.788Z,2.97
2019-04-16T19:28:20.121Z,3.10
2019-04-16T19:30:46.583Z,2.90
2019-04-16T19:33:14.994Z,3.20
2019-04-16T19:35:43.279Z,3.43
2019-04-16T19:38:11.534Z,3.40
2019-04-16T19:40:39.778Z,3.40
2019-04-16T19:43:08.049Z,3.05
2019-04-16T19:45:36.434Z,2.60
2019-04-16T19:48:05.093Z,2.67
2019-04-16T19:50:36.357Z,2.40
2019-04-16T19:53:01.357Z,2.47
2019-04-16T19:55:29.582Z,2.47
2019-04-16T19:57:58.125Z,2.50
2019-04-16T20:00:26.076Z,2.40
2019-04-16T20:02:54.350Z,2.92
2019-04-16T20:05:22.526Z,2.70
2019-04-16T20:07:50.782Z,2.97
2019-04-16T20:10:19.047Z,2.87
2019-04-16T20:12:47.267Z,3.10
2019-04-16T20:15:15.463Z,3.12
2019-04-16T20:17:43.702Z,3.20
2019-04-16T20:20:11.905Z,3.25
2019-04-16T20:22:40.088Z,3.10
2019-04-16T20:25:08.345Z,3.20
2019-04-16T20:27:39.609Z,3.22
2019-04-16T20:30:04.863Z,3.15
2019-04-16T20:32:34.303Z,3.50
2019-04-16T20:35:01.404Z,3.30
2019-04-16T20:37:29.594Z,3.10
2019-04-16T20:39:57.859Z,3.72
2019-04-16T20:42:26.082Z,3.40
2019-04-16T20:44:54.566Z,3.00
2019-04-16T20:47:22.558Z,3.62
2019-04-16T20:49:50.771Z,3.33
2019-04-16T20:52:18.958Z,3.17
2019-04-16T20:54:47.174Z,3.42
2019-04-16T20:57:15.424Z,3.97
2019-04-16T20:59:43.668Z,3.50
2019-04-16T21:02:11.896Z,3.60
2019-04-16T21:04:40.149Z,3.65
2019-04-16T21:07:14.357Z,3.08
2019-04-16T21:09:36.633Z,3.72
2019-04-16T21:12:04.848Z,3.30
2019-04-16T21:14:33.060Z,4.00
2019-04-16T21:17:06.003Z,3.33
2019-04-16T21:19:35.478Z,3.62
2019-04-16T21:22:03.278Z,3.60
2019-04-16T21:24:31.508Z,3.50
2019-04-16T21:26:59.724Z,3.75
2019-04-16T21:29:33.304Z,3.50
2019-04-16T21:31:57.968Z,4.28
2019-04-16T21:34:29.906Z,3.85
2019-04-16T21:37:01.278Z,3.85
2019-04-16T21:39:32.402Z,3.80
2019-04-16T21:42:02.412Z,3.80
2019-04-16T21:44:34.698Z,4.40
2019-04-16T21:47:02.892Z,4.15
2019-04-16T21:49:38.510Z,4.93
2019-04-16T21:52:04.990Z,5.00
2019-04-16T21:54:33.211Z,5.00
2019-04-16T21:57:01.391Z,5.18
2019-04-16T21:59:29.651Z,5.93
2019-04-16T22:01:57.907Z,6.00
2019-04-16T22:04:26.103Z,5.80
2019-04-16T22:06:54.407Z,5.72
2019-04-16T22:09:22.701Z,5.25
2019-04-16T22:11:50.948Z,4.97
2019-04-16T22:14:21.970Z,5.53
2019-04-16T22:16:47.406Z,5.67
2019-04-16T22:19:15.588Z,6.00
2019-04-16T22:21:43.910Z,5.90
2019-04-16T22:24:12.042Z,6.50
2019-04-16T22:26:40.292Z,6.25
2019-04-16T22:29:08.879Z,6.00
2019-04-16T22:31:37.092Z,5.70
2019-04-16T22:34:05.315Z,6.15
2019-04-16T22:36:33.569Z,5.28
2019-04-16T22:39:07.428Z,6.70
2019-04-16T22:41:36.393Z,6.93
2019-04-16T22:44:05.477Z,6.43
2019-04-16T22:46:33.545Z,5.43
2019-04-16T22:49:01.827Z,5.97
2019-04-16T22:51:30.073Z,4.90
2019-04-16T22:53:58.411Z,5.55
2019-04-16T22:56:28.372Z,5.32
2019-04-16T22:58:54.725Z,5.10
2019-04-16T23:01:22.915Z,5.25
2019-04-16T23:03:53.310Z,5.57
2019-04-16T23:06:19.421Z,5.50
2019-04-16T23:08:47.653Z,6.20
2019-04-16T23:11:15.905Z,5.68
2019-04-16T23:13:44.080Z,6.95
2019-04-16T23:16:12.339Z,6.87
2019-04-16T23:18:40.602Z,6.43
2019-04-16T23:21:10.677Z,5.97
2019-04-16T23:23:37.067Z,6.18
2019-04-16T23:26:05.447Z,6.17
2019-04-16T23:28:33.514Z,6.60
2019-04-16T23:31:01.725Z,6.00
2019-04-16T23:33:32.818Z,6.72
2019-04-16T23:35:58.569Z,7.43
2019-04-16T23:38:31.152Z,6.93
2019-04-16T23:40:54.750Z,6.85
2019-04-16T23:43:26.917Z,7.50
2019-04-16T23:46:01.694Z,8.05
2019-04-16T23:48:29.815Z,7.35
2019-04-16T23:51:00.982Z,7.43
2019-04-16T23:53:31.097Z,7.87
2019-04-16T23:56:03.576Z,7.97
2019-04-16T23:58:33.189Z,7.72
